sensor_id;sensor_type;location;lat;lon;timestamp;P1;durP1;ratioP1;P2;durP2;ratioP2
20870;SDS011;10595;51.218;3.452;2023-04-22T00:00:55;33.67;;;19.97;;
20870;SDS011;10595;51.218;3.452;2023-04-22T00:03:21;35.60;;;21.37;;
20870;SDS011;10595;51.218;3.452;2023-04-22T00:05:47;31.07;;;19.80;;
20870;SDS011;10595;51.218;3.452;2023-04-22T00:08:13;28.27;;;18.13;;
20870;SDS011;10595;51.218;3.452;2023-04-22T00:10:39;31.53;;;20.20;;
20870;SDS011;10595;51.218;3.452;2023-04-22T00:13:05;30.13;;;19.87;;
20870;SDS011;10595;51.218;3.452;2023-04-22T00:15:31;30.43;;;19.40;;
20870;SDS011;10595;51.218;3.452;2023-04-22T00:17:57;27.23;;;18.73;;
20870;SDS011;10595;51.218;3.452;2023-04-22T00:20:23;32.70;;;20.00;;
20870;SDS011;10595;51.218;3.452;2023-04-22T00:22:49;30.43;;;19.73;;
20870;SDS011;10595;51.218;3.452;2023-04-22T00:25:15;30.63;;;19.87;;
20870;SDS011;10595;51.218;3.452;2023-04-22T00:27:42;30.83;;;19.60;;
20870;SDS011;10595;51.218;3.452;2023-04-22T00:30:09;37.63;;;21.43;;
20870;SDS011;10595;51.218;3.452;2023-04-22T00:32:35;36.07;;;21.80;;
20870;SDS011;10595;51.218;3.452;2023-04-22T00:35:02;32.97;;;20.20;;
20870;SDS011;10595;51.218;3.452;2023-04-22T00:37:28;32.43;;;20.40;;
20870;SDS011;10595;51.218;3.452;2023-04-22T00:39:54;37.50;;;22.37;;
20870;SDS011;10595;51.218;3.452;2023-04-22T00:42:21;37.50;;;22.93;;
20870;SDS011;10595;51.218;3.452;2023-04-22T00:44:48;36.50;;;20.80;;
20870;SDS011;10595;51.218;3.452;2023-04-22T00:47:14;35.53;;;21.57;;
20870;SDS011;10595;51.218;3.452;2023-04-22T00:49:40;34.07;;;21.40;;
20870;SDS011;10595;51.218;3.452;2023-04-22T00:52:06;28.03;;;18.67;;
20870;SDS011;10595;51.218;3.452;2023-04-22T00:54:33;32.27;;;18.53;;
20870;SDS011;10595;51.218;3.452;2023-04-22T00:57:01;35.67;;;20.73;;
20870;SDS011;10595;51.218;3.452;2023-04-22T00:59:28;30.13;;;18.73;;
20870;SDS011;10595;51.218;3.452;2023-04-22T01:01:54;31.00;;;19.70;;
20870;SDS011;10595;51.218;3.452;2023-04-22T01:04:20;30.13;;;18.97;;
20870;SDS011;10595;51.218;3.452;2023-04-22T01:06:46;28.23;;;18.60;;
20870;SDS011;10595;51.218;3.452;2023-04-22T01:09:13;32.13;;;19.03;;
20870;SDS011;10595;51.218;3.452;2023-04-22T01:11:39;32.93;;;19.77;;
20870;SDS011;10595;51.218;3.452;2023-04-22T01:14:05;34.30;;;20.00;;
20870;SDS011;10595;51.218;3.452;2023-04-22T01:16:31;33.70;;;20.40;;
20870;SDS011;10595;51.218;3.452;2023-04-22T01:19:02;35.63;;;20.60;;
20870;SDS011;10595;51.218;3.452;2023-04-22T01:21:29;30.70;;;19.23;;
20870;SDS011;10595;51.218;3.452;2023-04-22T01:23:57;30.67;;;19.37;;
20870;SDS011;10595;51.218;3.452;2023-04-22T01:26:23;35.20;;;22.00;;
20870;SDS011;10595;51.218;3.452;2023-04-22T01:28:49;37.63;;;22.40;;
20870;SDS011;10595;51.218;3.452;2023-04-22T01:31:15;33.67;;;20.50;;
20870;SDS011;10595;51.218;3.452;2023-04-22T01:33:41;34.33;;;20.97;;
20870;SDS011;10595;51.218;3.452;2023-04-22T01:36:09;31.77;;;19.17;;
20870;SDS011;10595;51.218;3.452;2023-04-22T01:38:35;32.27;;;20.13;;
20870;SDS011;10595;51.218;3.452;2023-04-22T01:41:01;33.70;;;20.30;;
20870;SDS011;10595;51.218;3.452;2023-04-22T01:43:28;26.50;;;17.60;;
20870;SDS011;10595;51.218;3.452;2023-04-22T01:45:55;24.07;;;15.77;;
20870;SDS011;10595;51.218;3.452;2023-04-22T01:48:21;25.43;;;16.20;;
20870;SDS011;10595;51.218;3.452;2023-04-22T01:50:47;28.70;;;18.13;;
20870;SDS011;10595;51.218;3.452;2023-04-22T01:53:13;29.17;;;18.60;;
20870;SDS011;10595;51.218;3.452;2023-04-22T01:55:39;29.47;;;18.47;;
20870;SDS011;10595;51.218;3.452;2023-04-22T01:58:07;26.83;;;17.43;;
20870;SDS011;10595;51.218;3.452;2023-04-22T02:00:33;26.73;;;18.30;;
20870;SDS011;10595;51.218;3.452;2023-04-22T02:02:59;29.77;;;19.10;;
20870;SDS011;10595;51.218;3.452;2023-04-22T02:05:25;29.97;;;18.77;;
20870;SDS011;10595;51.218;3.452;2023-04-22T02:07:51;31.07;;;19.90;;
20870;SDS011;10595;51.218;3.452;2023-04-22T02:10:18;32.27;;;19.60;;
20870;SDS011;10595;51.218;3.452;2023-04-22T02:12:44;30.13;;;19.43;;
20870;SDS011;10595;51.218;3.452;2023-04-22T02:15:10;31.07;;;19.80;;
20870;SDS011;10595;51.218;3.452;2023-04-22T02:17:36;31.77;;;19.83;;
20870;SDS011;10595;51.218;3.452;2023-04-22T02:20:02;33.57;;;20.10;;
20870;SDS011;10595;51.218;3.452;2023-04-22T02:22:29;32.70;;;21.20;;
20870;SDS011;10595;51.218;3.452;2023-04-22T02:24:55;33.30;;;20.53;;
20870;SDS011;10595;51.218;3.452;2023-04-22T02:27:22;32.27;;;21.00;;
20870;SDS011;10595;51.218;3.452;2023-04-22T02:29:48;32.43;;;20.50;;
20870;SDS011;10595;51.218;3.452;2023-04-22T02:32:14;34.23;;;21.63;;
20870;SDS011;10595;51.218;3.452;2023-04-22T02:34:41;32.83;;;21.37;;
20870;SDS011;10595;51.218;3.452;2023-04-22T02:37:07;32.53;;;20.60;;
20870;SDS011;10595;51.218;3.452;2023-04-22T02:39:33;36.10;;;21.93;;
20870;SDS011;10595;51.218;3.452;2023-04-22T02:41:59;31.73;;;21.17;;
20870;SDS011;10595;51.218;3.452;2023-04-22T02:44:25;33.83;;;21.47;;
20870;SDS011;10595;51.218;3.452;2023-04-22T02:46:51;31.40;;;20.53;;
20870;SDS011;10595;51.218;3.452;2023-04-22T02:49:17;30.53;;;19.87;;
20870;SDS011;10595;51.218;3.452;2023-04-22T02:51:43;31.77;;;21.13;;
20870;SDS011;10595;51.218;3.452;2023-04-22T02:54:09;32.33;;;19.90;;
20870;SDS011;10595;51.218;3.452;2023-04-22T02:56:35;32.40;;;20.97;;
20870;SDS011;10595;51.218;3.452;2023-04-22T02:59:01;29.20;;;18.77;;
20870;SDS011;10595;51.218;3.452;2023-04-22T03:01:27;26.23;;;17.63;;
20870;SDS011;10595;51.218;3.452;2023-04-22T03:03:54;27.53;;;17.73;;
20870;SDS011;10595;51.218;3.452;2023-04-22T03:06:20;31.17;;;19.27;;
20870;SDS011;10595;51.218;3.452;2023-04-22T03:08:46;30.30;;;19.53;;
20870;SDS011;10595;51.218;3.452;2023-04-22T03:11:12;29.33;;;19.30;;
20870;SDS011;10595;51.218;3.452;2023-04-22T03:13:38;31.10;;;19.80;;
20870;SDS011;10595;51.218;3.452;2023-04-22T03:16:04;34.53;;;22.30;;
20870;SDS011;10595;51.218;3.452;2023-04-22T03:18:31;35.27;;;21.27;;
20870;SDS011;10595;51.218;3.452;2023-04-22T03:20:57;43.17;;;24.87;;
20870;SDS011;10595;51.218;3.452;2023-04-22T03:23:24;43.13;;;25.27;;
20870;SDS011;10595;51.218;3.452;2023-04-22T03:25:50;38.87;;;23.77;;
20870;SDS011;10595;51.218;3.452;2023-04-22T03:28:17;37.40;;;22.87;;
20870;SDS011;10595;51.218;3.452;2023-04-22T03:30:43;35.00;;;21.73;;
20870;SDS011;10595;51.218;3.452;2023-04-22T03:33:10;36.50;;;23.13;;
20870;SDS011;10595;51.218;3.452;2023-04-22T03:35:36;38.00;;;23.00;;
20870;SDS011;10595;51.218;3.452;2023-04-22T03:38:02;33.97;;;21.07;;
20870;SDS011;10595;51.218;3.452;2023-04-22T03:40:28;26.70;;;17.67;;
20870;SDS011;10595;51.218;3.452;2023-04-22T03:42:54;24.30;;;15.87;;
20870;SDS011;10595;51.218;3.452;2023-04-22T03:45:20;20.90;;;14.10;;
20870;SDS011;10595;51.218;3.452;2023-04-22T03:47:46;24.77;;;16.87;;
20870;SDS011;10595;51.218;3.452;2023-04-22T03:50:12;30.77;;;19.50;;
20870;SDS011;10595;51.218;3.452;2023-04-22T03:52:38;30.63;;;18.97;;
20870;SDS011;10595;51.218;3.452;2023-04-22T03:55:04;41.43;;;23.50;;
20870;SDS011;10595;51.218;3.452;2023-04-22T03:57:30;42.63;;;23.60;;
20870;SDS011;10595;51.218;3.452;2023-04-22T03:59:56;44.00;;;26.13;;
20870;SDS011;10595;51.218;3.452;2023-04-22T04:02:22;61.77;;;29.30;;
20870;SDS011;10595;51.218;3.452;2023-04-22T04:04:48;55.70;;;30.13;;
20870;SDS011;10595;51.218;3.452;2023-04-22T04:07:14;142.87;;;37.07;;
20870;SDS011;10595;51.218;3.452;2023-04-22T04:09:40;119.73;;;37.07;;
20870;SDS011;10595;51.218;3.452;2023-04-22T04:12:06;341.17;;;51.13;;
20870;SDS011;10595;51.218;3.452;2023-04-22T04:14:32;193.57;;;41.13;;
20870;SDS011;10595;51.218;3.452;2023-04-22T04:16:58;147.03;;;40.27;;
20870;SDS011;10595;51.218;3.452;2023-04-22T04:19:24;170.90;;;44.10;;
20870;SDS011;10595;51.218;3.452;2023-04-22T04:21:50;118.37;;;43.07;;
20870;SDS011;10595;51.218;3.452;2023-04-22T04:24:16;93.17;;;37.93;;
20870;SDS011;10595;51.218;3.452;2023-04-22T04:26:43;103.77;;;40.10;;
20870;SDS011;10595;51.218;3.452;2023-04-22T04:29:09;259.07;;;50.07;;
20870;SDS011;10595;51.218;3.452;2023-04-22T04:31:35;81.67;;;40.23;;
20870;SDS011;10595;51.218;3.452;2023-04-22T04:34:01;72.97;;;37.33;;
20870;SDS011;10595;51.218;3.452;2023-04-22T04:36:27;81.83;;;37.67;;
20870;SDS011;10595;51.218;3.452;2023-04-22T04:38:53;309.33;;;52.93;;
20870;SDS011;10595;51.218;3.452;2023-04-22T04:41:20;77.47;;;39.93;;
20870;SDS011;10595;51.218;3.452;2023-04-22T04:43:46;79.87;;;39.80;;
20870;SDS011;10595;51.218;3.452;2023-04-22T04:46:13;80.83;;;38.53;;
20870;SDS011;10595;51.218;3.452;2023-04-22T04:48:40;80.57;;;38.80;;
20870;SDS011;10595;51.218;3.452;2023-04-22T04:51:09;73.50;;;38.33;;
20870;SDS011;10595;51.218;3.452;2023-04-22T04:53:36;73.03;;;38.20;;
20870;SDS011;10595;51.218;3.452;2023-04-22T04:56:02;76.03;;;38.90;;
20870;SDS011;10595;51.218;3.452;2023-04-22T04:58:28;99.73;;;41.03;;
20870;SDS011;10595;51.218;3.452;2023-04-22T05:00:54;81.03;;;38.80;;
20870;SDS011;10595;51.218;3.452;2023-04-22T05:03:20;65.37;;;36.67;;
20870;SDS011;10595;51.218;3.452;2023-04-22T05:05:46;121.03;;;40.77;;
20870;SDS011;10595;51.218;3.452;2023-04-22T05:08:13;103.93;;;40.27;;
20870;SDS011;10595;51.218;3.452;2023-04-22T05:10:39;67.27;;;38.50;;
20870;SDS011;10595;51.218;3.452;2023-04-22T05:13:06;63.40;;;37.37;;
20870;SDS011;10595;51.218;3.452;2023-04-22T05:15:32;65.30;;;37.57;;
20870;SDS011;10595;51.218;3.452;2023-04-22T05:17:58;64.00;;;37.23;;
20870;SDS011;10595;51.218;3.452;2023-04-22T05:20:24;78.57;;;38.47;;
20870;SDS011;10595;51.218;3.452;2023-04-22T05:22:50;82.63;;;38.47;;
20870;SDS011;10595;51.218;3.452;2023-04-22T05:25:16;69.57;;;38.30;;
20870;SDS011;10595;51.218;3.452;2023-04-22T05:27:42;124.37;;;40.03;;
20870;SDS011;10595;51.218;3.452;2023-04-22T05:30:08;73.87;;;36.93;;
20870;SDS011;10595;51.218;3.452;2023-04-22T05:32:35;111.77;;;40.20;;
20870;SDS011;10595;51.218;3.452;2023-04-22T05:35:01;69.33;;;36.53;;
20870;SDS011;10595;51.218;3.452;2023-04-22T05:37:27;72.47;;;36.57;;
20870;SDS011;10595;51.218;3.452;2023-04-22T05:39:53;111.17;;;38.20;;
20870;SDS011;10595;51.218;3.452;2023-04-22T05:42:19;75.10;;;34.30;;
20870;SDS011;10595;51.218;3.452;2023-04-22T05:44:45;85.00;;;34.70;;
20870;SDS011;10595;51.218;3.452;2023-04-22T05:47:12;61.50;;;32.50;;
20870;SDS011;10595;51.218;3.452;2023-04-22T05:49:38;66.27;;;34.43;;
20870;SDS011;10595;51.218;3.452;2023-04-22T05:52:04;52.43;;;32.90;;
20870;SDS011;10595;51.218;3.452;2023-04-22T05:54:30;60.13;;;32.47;;
20870;SDS011;10595;51.218;3.452;2023-04-22T05:56:56;113.17;;;35.13;;
20870;SDS011;10595;51.218;3.452;2023-04-22T05:59:22;61.20;;;33.97;;
20870;SDS011;10595;51.218;3.452;2023-04-22T06:01:48;115.27;;;38.80;;
20870;SDS011;10595;51.218;3.452;2023-04-22T06:04:14;56.83;;;34.50;;
20870;SDS011;10595;51.218;3.452;2023-04-22T06:06:40;98.70;;;35.30;;
20870;SDS011;10595;51.218;3.452;2023-04-22T06:09:06;59.47;;;33.33;;
20870;SDS011;10595;51.218;3.452;2023-04-22T06:11:32;55.40;;;34.57;;
20870;SDS011;10595;51.218;3.452;2023-04-22T06:13:58;113.03;;;37.87;;
20870;SDS011;10595;51.218;3.452;2023-04-22T06:16:25;56.80;;;34.77;;
20870;SDS011;10595;51.218;3.452;2023-04-22T06:18:51;67.57;;;35.93;;
20870;SDS011;10595;51.218;3.452;2023-04-22T06:21:17;96.93;;;37.63;;
20870;SDS011;10595;51.218;3.452;2023-04-22T06:23:44;67.10;;;37.90;;
20870;SDS011;10595;51.218;3.452;2023-04-22T06:26:10;66.43;;;37.07;;
20870;SDS011;10595;51.218;3.452;2023-04-22T06:28:36;67.07;;;38.43;;
20870;SDS011;10595;51.218;3.452;2023-04-22T06:31:03;66.40;;;39.00;;
20870;SDS011;10595;51.218;3.452;2023-04-22T06:33:29;76.70;;;42.10;;
20870;SDS011;10595;51.218;3.452;2023-04-22T06:35:55;72.87;;;39.17;;
20870;SDS011;10595;51.218;3.452;2023-04-22T06:38:21;67.57;;;39.33;;
20870;SDS011;10595;51.218;3.452;2023-04-22T06:40:47;64.13;;;38.43;;
20870;SDS011;10595;51.218;3.452;2023-04-22T06:43:13;65.10;;;38.97;;
20870;SDS011;10595;51.218;3.452;2023-04-22T06:45:39;62.97;;;37.57;;
20870;SDS011;10595;51.218;3.452;2023-04-22T06:48:05;66.87;;;41.10;;
20870;SDS011;10595;51.218;3.452;2023-04-22T06:50:31;58.00;;;37.47;;
20870;SDS011;10595;51.218;3.452;2023-04-22T06:52:57;61.07;;;38.87;;
20870;SDS011;10595;51.218;3.452;2023-04-22T06:55:23;61.27;;;38.10;;
20870;SDS011;10595;51.218;3.452;2023-04-22T06:57:49;61.27;;;37.17;;
20870;SDS011;10595;51.218;3.452;2023-04-22T07:00:15;61.13;;;37.57;;
20870;SDS011;10595;51.218;3.452;2023-04-22T07:02:41;62.17;;;38.63;;
20870;SDS011;10595;51.218;3.452;2023-04-22T07:05:07;59.93;;;37.33;;
20870;SDS011;10595;51.218;3.452;2023-04-22T07:07:34;58.13;;;36.60;;
20870;SDS011;10595;51.218;3.452;2023-04-22T07:10:00;59.57;;;37.97;;
20870;SDS011;10595;51.218;3.452;2023-04-22T07:12:26;60.13;;;37.50;;
20870;SDS011;10595;51.218;3.452;2023-04-22T07:14:52;58.27;;;38.23;;
20870;SDS011;10595;51.218;3.452;2023-04-22T07:17:18;54.53;;;35.50;;
20870;SDS011;10595;51.218;3.452;2023-04-22T07:19:46;59.90;;;37.63;;
20870;SDS011;10595;51.218;3.452;2023-04-22T07:22:12;58.93;;;37.13;;
20870;SDS011;10595;51.218;3.452;2023-04-22T07:24:38;61.97;;;38.30;;
20870;SDS011;10595;51.218;3.452;2023-04-22T07:27:05;60.43;;;38.37;;
20870;SDS011;10595;51.218;3.452;2023-04-22T07:29:31;62.47;;;39.00;;
20870;SDS011;10595;51.218;3.452;2023-04-22T07:31:57;60.77;;;38.17;;
20870;SDS011;10595;51.218;3.452;2023-04-22T07:34:23;57.20;;;37.03;;
20870;SDS011;10595;51.218;3.452;2023-04-22T07:36:49;57.47;;;36.47;;
20870;SDS011;10595;51.218;3.452;2023-04-22T07:39:16;55.30;;;35.83;;
20870;SDS011;10595;51.218;3.452;2023-04-22T07:41:42;50.87;;;33.00;;
20870;SDS011;10595;51.218;3.452;2023-04-22T07:44:08;51.37;;;34.73;;
20870;SDS011;10595;51.218;3.452;2023-04-22T07:46:36;46.00;;;32.47;;
20870;SDS011;10595;51.218;3.452;2023-04-22T07:49:02;46.77;;;32.17;;
20870;SDS011;10595;51.218;3.452;2023-04-22T07:51:28;49.27;;;33.53;;
20870;SDS011;10595;51.218;3.452;2023-04-22T07:53:54;47.83;;;30.80;;
20870;SDS011;10595;51.218;3.452;2023-04-22T07:56:20;49.63;;;31.77;;
20870;SDS011;10595;51.218;3.452;2023-04-22T07:58:47;47.37;;;31.33;;
20870;SDS011;10595;51.218;3.452;2023-04-22T08:01:13;48.27;;;31.40;;
20870;SDS011;10595;51.218;3.452;2023-04-22T08:03:39;49.13;;;32.77;;
20870;SDS011;10595;51.218;3.452;2023-04-22T08:06:05;49.40;;;32.27;;
20870;SDS011;10595;51.218;3.452;2023-04-22T08:08:31;48.47;;;32.53;;
20870;SDS011;10595;51.218;3.452;2023-04-22T08:10:57;47.23;;;31.13;;
20870;SDS011;10595;51.218;3.452;2023-04-22T08:13:23;43.43;;;30.23;;
20870;SDS011;10595;51.218;3.452;2023-04-22T08:15:49;45.53;;;30.33;;
20870;SDS011;10595;51.218;3.452;2023-04-22T08:18:15;42.03;;;28.63;;
20870;SDS011;10595;51.218;3.452;2023-04-22T08:20:41;43.93;;;28.93;;
20870;SDS011;10595;51.218;3.452;2023-04-22T08:23:07;40.00;;;27.47;;
20870;SDS011;10595;51.218;3.452;2023-04-22T08:25:33;40.40;;;26.50;;
20870;SDS011;10595;51.218;3.452;2023-04-22T08:27:59;41.80;;;27.43;;
20870;SDS011;10595;51.218;3.452;2023-04-22T08:30:25;43.50;;;29.37;;
20870;SDS011;10595;51.218;3.452;2023-04-22T08:32:51;43.70;;;30.23;;
20870;SDS011;10595;51.218;3.452;2023-04-22T08:35:18;37.23;;;28.07;;
20870;SDS011;10595;51.218;3.452;2023-04-22T08:37:47;41.67;;;27.93;;
20870;SDS011;10595;51.218;3.452;2023-04-22T08:40:13;41.43;;;28.07;;
20870;SDS011;10595;51.218;3.452;2023-04-22T08:42:39;48.33;;;31.07;;
20870;SDS011;10595;51.218;3.452;2023-04-22T08:45:05;47.53;;;30.63;;
20870;SDS011;10595;51.218;3.452;2023-04-22T08:47:31;49.23;;;30.53;;
20870;SDS011;10595;51.218;3.452;2023-04-22T08:49:57;49.10;;;30.17;;
20870;SDS011;10595;51.218;3.452;2023-04-22T08:52:23;46.07;;;29.87;;
20870;SDS011;10595;51.218;3.452;2023-04-22T08:54:50;44.77;;;30.43;;
20870;SDS011;10595;51.218;3.452;2023-04-22T08:57:19;45.87;;;29.23;;
20870;SDS011;10595;51.218;3.452;2023-04-22T08:59:45;42.33;;;28.53;;
20870;SDS011;10595;51.218;3.452;2023-04-22T09:02:12;42.83;;;27.80;;
20870;SDS011;10595;51.218;3.452;2023-04-22T09:04:41;42.77;;;28.87;;
20870;SDS011;10595;51.218;3.452;2023-04-22T09:07:08;42.60;;;28.57;;
20870;SDS011;10595;51.218;3.452;2023-04-22T09:09:35;42.20;;;28.07;;
20870;SDS011;10595;51.218;3.452;2023-04-22T09:12:02;40.70;;;27.53;;
20870;SDS011;10595;51.218;3.452;2023-04-22T09:14:29;40.80;;;27.43;;
20870;SDS011;10595;51.218;3.452;2023-04-22T09:16:55;42.17;;;28.17;;
20870;SDS011;10595;51.218;3.452;2023-04-22T09:19:23;38.57;;;26.60;;
20870;SDS011;10595;51.218;3.452;2023-04-22T09:21:49;41.37;;;27.70;;
20870;SDS011;10595;51.218;3.452;2023-04-22T09:24:16;43.70;;;27.83;;
20870;SDS011;10595;51.218;3.452;2023-04-22T09:26:44;40.27;;;27.53;;
20870;SDS011;10595;51.218;3.452;2023-04-22T09:29:14;40.83;;;27.50;;
20870;SDS011;10595;51.218;3.452;2023-04-22T09:31:40;41.43;;;27.93;;
20870;SDS011;10595;51.218;3.452;2023-04-22T09:34:06;40.57;;;26.97;;
20870;SDS011;10595;51.218;3.452;2023-04-22T09:36:33;42.17;;;26.50;;
20870;SDS011;10595;51.218;3.452;2023-04-22T09:39:04;43.70;;;28.53;;
20870;SDS011;10595;51.218;3.452;2023-04-22T09:41:37;41.70;;;27.60;;
20870;SDS011;10595;51.218;3.452;2023-04-22T09:44:07;42.17;;;27.97;;
20870;SDS011;10595;51.218;3.452;2023-04-22T09:46:33;41.77;;;26.50;;
20870;SDS011;10595;51.218;3.452;2023-04-22T09:48:59;38.07;;;24.23;;
20870;SDS011;10595;51.218;3.452;2023-04-22T09:51:27;39.40;;;25.27;;
20870;SDS011;10595;51.218;3.452;2023-04-22T09:54:11;35.03;;;23.30;;
20870;SDS011;10595;51.218;3.452;2023-04-22T09:59:06;37.77;;;24.80;;
20870;SDS011;10595;51.218;3.452;2023-04-22T10:01:39;38.00;;;25.53;;
20870;SDS011;10595;51.218;3.452;2023-04-22T10:04:06;38.77;;;26.13;;
20870;SDS011;10595;51.218;3.452;2023-04-22T10:06:33;42.77;;;27.40;;
20870;SDS011;10595;51.218;3.452;2023-04-22T10:09:00;39.37;;;26.63;;
20870;SDS011;10595;51.218;3.452;2023-04-22T10:11:26;40.40;;;26.97;;
20870;SDS011;10595;51.218;3.452;2023-04-22T10:13:52;41.08;;;26.98;;
20870;SDS011;10595;51.218;3.452;2023-04-22T10:16:19;39.07;;;25.70;;
20870;SDS011;10595;51.218;3.452;2023-04-22T10:18:46;40.37;;;26.93;;
20870;SDS011;10595;51.218;3.452;2023-04-22T10:21:12;41.53;;;27.80;;
20870;SDS011;10595;51.218;3.452;2023-04-22T10:23:42;45.10;;;28.80;;
20870;SDS011;10595;51.218;3.452;2023-04-22T10:26:10;43.67;;;28.47;;
20870;SDS011;10595;51.218;3.452;2023-04-22T10:28:40;43.40;;;29.10;;
20870;SDS011;10595;51.218;3.452;2023-04-22T10:31:13;43.77;;;28.70;;
20870;SDS011;10595;51.218;3.452;2023-04-22T10:33:45;43.20;;;29.10;;
20870;SDS011;10595;51.218;3.452;2023-04-22T10:38:38;39.43;;;26.70;;
20870;SDS011;10595;51.218;3.452;2023-04-22T10:41:05;41.70;;;27.37;;
20870;SDS011;10595;51.218;3.452;2023-04-22T10:46:06;35.83;;;25.80;;
20870;SDS011;10595;51.218;3.452;2023-04-22T10:48:48;42.07;;;27.93;;
20870;SDS011;10595;51.218;3.452;2023-04-22T10:51:59;39.37;;;27.30;;
20870;SDS011;10595;51.218;3.452;2023-04-22T10:54:00;35.73;;;26.70;;
20870;SDS011;10595;51.218;3.452;2023-04-22T10:56:26;39.57;;;27.53;;
20870;SDS011;10595;51.218;3.452;2023-04-22T10:58:54;39.10;;;26.87;;
20870;SDS011;10595;51.218;3.452;2023-04-22T11:01:20;38.73;;;27.20;;
20870;SDS011;10595;51.218;3.452;2023-04-22T11:03:46;36.87;;;26.90;;
20870;SDS011;10595;51.218;3.452;2023-04-22T11:06:16;37.30;;;25.77;;
20870;SDS011;10595;51.218;3.452;2023-04-22T11:08:43;36.90;;;26.17;;
20870;SDS011;10595;51.218;3.452;2023-04-22T11:11:09;35.37;;;25.30;;
20870;SDS011;10595;51.218;3.452;2023-04-22T11:13:37;35.87;;;25.60;;
20870;SDS011;10595;51.218;3.452;2023-04-22T11:16:06;37.27;;;26.20;;
20870;SDS011;10595;51.218;3.452;2023-04-22T11:18:32;37.67;;;25.80;;
20870;SDS011;10595;51.218;3.452;2023-04-22T11:21:02;39.20;;;25.73;;
20870;SDS011;10595;51.218;3.452;2023-04-22T11:23:30;39.53;;;25.50;;
20870;SDS011;10595;51.218;3.452;2023-04-22T11:26:01;34.63;;;24.47;;
20870;SDS011;10595;51.218;3.452;2023-04-22T11:28:27;35.50;;;24.90;;
20870;SDS011;10595;51.218;3.452;2023-04-22T11:31:00;33.07;;;23.57;;
20870;SDS011;10595;51.218;3.452;2023-04-22T11:33:26;34.10;;;23.20;;
20870;SDS011;10595;51.218;3.452;2023-04-22T11:35:52;34.23;;;24.10;;
20870;SDS011;10595;51.218;3.452;2023-04-22T11:38:19;33.30;;;23.17;;
20870;SDS011;10595;51.218;3.452;2023-04-22T11:40:45;29.30;;;20.83;;
20870;SDS011;10595;51.218;3.452;2023-04-22T11:43:11;30.50;;;21.57;;
20870;SDS011;10595;51.218;3.452;2023-04-22T11:45:38;30.60;;;22.83;;
20870;SDS011;10595;51.218;3.452;2023-04-22T11:48:05;32.43;;;23.17;;
20870;SDS011;10595;51.218;3.452;2023-04-22T11:50:32;32.97;;;23.20;;
20870;SDS011;10595;51.218;3.452;2023-04-22T11:53:00;36.33;;;24.07;;
20870;SDS011;10595;51.218;3.452;2023-04-22T11:57:55;29.37;;;21.23;;
20870;SDS011;10595;51.218;3.452;2023-04-22T12:00:22;31.87;;;22.03;;
20870;SDS011;10595;51.218;3.452;2023-04-22T12:02:55;30.80;;;22.03;;
20870;SDS011;10595;51.218;3.452;2023-04-22T12:05:30;28.07;;;21.00;;
20870;SDS011;10595;51.218;3.452;2023-04-22T12:07:57;26.80;;;20.47;;
20870;SDS011;10595;51.218;3.452;2023-04-22T12:10:24;28.77;;;20.73;;
20870;SDS011;10595;51.218;3.452;2023-04-22T12:12:50;29.13;;;20.73;;
20870;SDS011;10595;51.218;3.452;2023-04-22T12:15:16;28.03;;;20.50;;
20870;SDS011;10595;51.218;3.452;2023-04-22T12:17:45;28.60;;;20.53;;
20870;SDS011;10595;51.218;3.452;2023-04-22T12:20:11;28.57;;;20.93;;
20870;SDS011;10595;51.218;3.452;2023-04-22T12:22:37;28.73;;;21.63;;
20870;SDS011;10595;51.218;3.452;2023-04-22T12:25:03;28.83;;;21.83;;
20870;SDS011;10595;51.218;3.452;2023-04-22T12:27:30;29.90;;;20.47;;
20870;SDS011;10595;51.218;3.452;2023-04-22T12:29:56;30.37;;;22.00;;
20870;SDS011;10595;51.218;3.452;2023-04-22T12:32:24;28.80;;;20.40;;
20870;SDS011;10595;51.218;3.452;2023-04-22T12:34:51;27.93;;;20.77;;
20870;SDS011;10595;51.218;3.452;2023-04-22T12:37:17;28.17;;;20.80;;
20870;SDS011;10595;51.218;3.452;2023-04-22T12:39:43;28.53;;;20.33;;
20870;SDS011;10595;51.218;3.452;2023-04-22T12:42:10;30.13;;;21.70;;
20870;SDS011;10595;51.218;3.452;2023-04-22T12:44:36;30.83;;;22.47;;
20870;SDS011;10595;51.218;3.452;2023-04-22T12:47:02;32.13;;;22.73;;
20870;SDS011;10595;51.218;3.452;2023-04-22T12:49:28;34.37;;;22.93;;
20870;SDS011;10595;51.218;3.452;2023-04-22T12:51:54;32.03;;;23.30;;
20870;SDS011;10595;51.218;3.452;2023-04-22T12:54:20;33.30;;;23.87;;
20870;SDS011;10595;51.218;3.452;2023-04-22T12:56:46;29.67;;;22.20;;
20870;SDS011;10595;51.218;3.452;2023-04-22T12:59:13;30.37;;;21.63;;
20870;SDS011;10595;51.218;3.452;2023-04-22T13:01:39;29.13;;;21.73;;
20870;SDS011;10595;51.218;3.452;2023-04-22T13:04:05;32.67;;;23.37;;
20870;SDS011;10595;51.218;3.452;2023-04-22T13:06:31;30.47;;;22.37;;
20870;SDS011;10595;51.218;3.452;2023-04-22T13:08:58;31.37;;;23.20;;
20870;SDS011;10595;51.218;3.452;2023-04-22T13:11:24;31.00;;;23.07;;
20870;SDS011;10595;51.218;3.452;2023-04-22T13:13:51;32.47;;;23.97;;
20870;SDS011;10595;51.218;3.452;2023-04-22T13:16:17;34.63;;;24.07;;
20870;SDS011;10595;51.218;3.452;2023-04-22T13:18:43;32.63;;;23.63;;
20870;SDS011;10595;51.218;3.452;2023-04-22T13:21:09;32.50;;;23.37;;
20870;SDS011;10595;51.218;3.452;2023-04-22T13:23:37;33.63;;;23.07;;
20870;SDS011;10595;51.218;3.452;2023-04-22T13:26:04;32.60;;;23.50;;
20870;SDS011;10595;51.218;3.452;2023-04-22T13:28:30;42.07;;;28.20;;
20870;SDS011;10595;51.218;3.452;2023-04-22T13:30:56;34.07;;;25.03;;
20870;SDS011;10595;51.218;3.452;2023-04-22T13:33:22;29.60;;;21.17;;
20870;SDS011;10595;51.218;3.452;2023-04-22T13:35:48;22.23;;;15.97;;
20870;SDS011;10595;51.218;3.452;2023-04-22T13:38:14;23.03;;;15.97;;
20870;SDS011;10595;51.218;3.452;2023-04-22T13:40:40;31.20;;;20.13;;
20870;SDS011;10595;51.218;3.452;2023-04-22T13:43:07;33.07;;;23.80;;
20870;SDS011;10595;51.218;3.452;2023-04-22T13:45:33;43.23;;;30.57;;
20870;SDS011;10595;51.218;3.452;2023-04-22T13:47:59;43.97;;;29.70;;
20870;SDS011;10595;51.218;3.452;2023-04-22T13:50:25;39.67;;;28.30;;
20870;SDS011;10595;51.218;3.452;2023-04-22T13:52:51;46.47;;;30.70;;
20870;SDS011;10595;51.218;3.452;2023-04-22T13:55:18;44.00;;;29.97;;
20870;SDS011;10595;51.218;3.452;2023-04-22T13:57:44;39.20;;;27.50;;
20870;SDS011;10595;51.218;3.452;2023-04-22T14:00:10;40.57;;;27.90;;
20870;SDS011;10595;51.218;3.452;2023-04-22T14:02:36;37.53;;;26.20;;
20870;SDS011;10595;51.218;3.452;2023-04-22T14:05:02;34.97;;;23.57;;
20870;SDS011;10595;51.218;3.452;2023-04-22T14:07:29;31.27;;;20.70;;
20870;SDS011;10595;51.218;3.452;2023-04-22T14:09:55;30.73;;;21.30;;
20870;SDS011;10595;51.218;3.452;2023-04-22T14:12:21;31.40;;;22.73;;
20870;SDS011;10595;51.218;3.452;2023-04-22T14:14:47;32.07;;;22.37;;
20870;SDS011;10595;51.218;3.452;2023-04-22T14:17:13;30.73;;;22.80;;
20870;SDS011;10595;51.218;3.452;2023-04-22T14:19:40;30.60;;;22.90;;
20870;SDS011;10595;51.218;3.452;2023-04-22T14:22:08;29.40;;;21.03;;
20870;SDS011;10595;51.218;3.452;2023-04-22T14:24:34;30.87;;;21.83;;
20870;SDS011;10595;51.218;3.452;2023-04-22T14:27:00;29.30;;;22.20;;